Time;durP1;ratioP1;P1;durP2;ratioP2;P2;SDS_P1;SDS_P2;PMS_P1;PMS_P2;Temp;Humidity;BMP_temperature;BMP_pressure;BME280_temperature;BME280_humidity;BME280_pressure;Samples;Min_cycle;Max_cycle;Signal;HPM_P1;HPM_P2
2022/08/22 00:02:25;;;;;;;;;6.50;6.50;;;;;20.12;58.66;100596.34;5073930;27;45272;-72
2022/08/22 00:05:19;;;;;;;;;7.50;7.50;;;;;20.09;58.73;100596.59;5036421;27;45367;-73
2022/08/22 00:07:48;;;;;;;;;7.00;7.00;;;;;20.11;58.69;100607.13;5071971;27;46270;-71
2022/08/22 00:10:30;;;;;;;;;8.75;8.75;;;;;20.12;58.25;100601.69;5076901;27;45330;-71
2022/08/22 00:13:20;;;;;;;;;7.25;7.25;;;;;20.14;58.25;100601.56;5076887;27;45268;-71
2022/08/22 00:16:04;;;;;;;;;5.00;5.00;;;;;20.09;58.36;100585.06;5077149;27;45477;-70
2022/08/22 00:18:41;;;;;;;;;6.50;6.50;;;;;20.15;58.19;100589.94;5075601;27;46676;-70
2022/08/22 00:21:12;;;;;;;;;6.00;6.00;;;;;20.19;58.40;100588.72;5076737;27;45333;-70
2022/08/22 00:23:47;;;;;;;;;5.25;5.25;;;;;20.19;57.87;100580.69;5076695;27;45278;-71
2022/08/22 00:26:32;;;;;;;;;4.00;4.00;;;;;20.19;57.99;100572.69;5075401;27;45326;-70
2022/08/22 00:29:06;;;;;;;;;1.25;1.25;;;;;20.21;58.24;100576.06;5076454;27;47020;-70
2022/08/22 00:31:40;;;;;;;;;5.00;5.00;;;;;20.23;57.99;100570.59;5074875;27;45429;-71
2022/08/22 00:34:21;;;;;;;;;5.25;5.25;;;;;20.22;58.40;100566.22;5076574;27;45266;-70
2022/08/22 00:36:55;;;;;;;;;7.00;7.00;;;;;20.23;57.69;100565.25;5076962;27;45505;-71
2022/08/22 00:40:01;;;;;;;;;6.50;6.50;;;;;20.21;57.63;100569.88;5076910;27;46268;-70
2022/08/22 00:43:07;;;;;;;;;4.75;4.75;;;;;20.17;58.17;100561.28;5037142;28;45419;-70
2022/08/22 00:45:54;;;;;;;;;6.00;6.00;;;;;20.20;58.05;100561.03;5053975;28;45402;-71
2022/08/22 00:48:48;;;;;;;;;5.00;5.00;;;;;20.20;58.01;100573.50;5075488;27;45224;-71
2022/08/22 00:51:32;;;;;;;;;4.50;4.50;;;;;20.19;58.30;100580.69;5077353;27;45360;-70
2022/08/22 00:54:16;;;;;;;;;5.00;5.00;;;;;20.19;57.81;100572.69;5078585;27;45338;-71
2022/08/22 00:57:03;;;;;;;;;6.75;6.75;;;;;20.17;57.96;100579.09;5076528;27;45274;-72
2022/08/22 00:59:41;;;;;;;;;5.25;5.25;;;;;20.17;57.88;100579.97;5076687;27;45325;-72
2022/08/22 01:02:17;;;;;;;;;7.00;7.00;;;;;20.16;58.43;100570.25;5076303;27;47280;-70
2022/08/22 01:05:00;;;;;;;;;7.75;7.75;;;;;20.15;57.75;100565.91;5076007;27;45330;-70
2022/08/22 01:07:55;;;;;;;;;6.50;6.50;;;;;20.16;57.75;100577.41;5076305;27;45252;-71
2022/08/22 01:10:48;;;;;;;;;7.00;6.75;;;;;20.16;57.76;100583.63;5065641;27;45218;-71
2022/08/22 01:13:35;;;;;;;;;5.50;5.50;;;;;20.16;57.71;100586.28;5075392;28;45387;-72
2022/08/22 01:16:09;;;;;;;;;4.75;4.25;;;;;20.17;57.50;100584.44;5075477;27;45261;-71
2022/08/22 01:19:10;;;;;;;;;6.00;6.00;;;;;20.18;57.27;100589.69;5075689;27;45286;-70
2022/08/22 01:21:57;;;;;;;;;4.75;4.75;;;;;20.17;57.00;100587.13;5075971;27;45532;-70
2022/08/22 01:27:58;;;;;;;;;5.00;5.00;;;;;20.13;57.08;100584.69;5075573;27;45401;-71
2022/08/22 01:30:26;;;;;;;;;4.50;4.50;;;;;20.10;57.29;100584.94;5076177;27;45321;-72
2022/08/22 01:33:29;;;;;;;;;5.00;5.00;;;;;20.06;56.80;100575.47;5074559;28;45363;-71
2022/08/22 01:36:32;;;;;;;;;4.50;4.50;;;;;20.08;56.74;100567.34;5075725;28;45534;-71
2022/08/22 01:39:09;;;;;;;;;5.50;5.50;;;;;20.08;57.10;100560.19;5075873;27;45252;-70
2022/08/22 01:41:41;;;;;;;;;4.25;4.25;;;;;20.07;57.14;100554.97;5075818;27;45243;-71
2022/08/22 01:44:26;;;;;;;;;4.50;4.50;;;;;20.08;56.81;100553.97;5074415;28;45351;-71
2022/08/22 01:47:05;;;;;;;;;4.25;4.25;;;;;20.02;56.88;100555.34;5075504;27;45410;-71
2022/08/22 01:49:41;;;;;;;;;3.50;3.50;;;;;19.94;57.17;100555.94;5075571;27;45257;-71
2022/08/22 01:52:44;;;;;;;;;6.50;5.00;;;;;19.87;57.09;100544.03;5075632;27;45330;-71
2022/08/22 01:55:35;;;;;;;;;3.25;3.25;;;;;19.79;57.13;100549.16;5075616;27;45646;-71
2022/08/22 01:58:22;;;;;;;;;6.25;6.25;;;;;19.76;57.79;100544.91;5072687;27;45556;-71
2022/08/22 02:01:07;;;;;;;;;4.00;4.00;;;;;19.73;57.51;100554.97;5075439;27;45386;-71
2022/08/22 02:03:41;;;;;;;;;5.50;5.00;;;;;19.69;57.94;100554.38;5075096;27;45232;-71
2022/08/22 02:06:15;;;;;;;;;4.75;4.25;;;;;19.66;57.93;100555.47;5075678;27;45213;-71
2022/08/22 02:09:06;;;;;;;;;5.25;5.25;;;;;19.64;57.54;100554.72;5074811;27;46841;-71
2022/08/22 02:11:47;;;;;;;;;4.00;4.00;;;;;19.61;58.28;100559.44;5075066;27;45382;-71
2022/08/22 02:14:24;;;;;;;;;6.25;5.00;;;;;19.62;57.84;100566.50;5073438;28;45296;-71
2022/08/22 02:16:56;;;;;;;;;4.25;4.25;;;;;19.60;57.95;100561.28;5073930;27;45316;-71
2022/08/22 02:19:34;;;;;;;;;4.75;4.75;;;;;19.58;58.01;100567.69;5074736;27;46060;-71
2022/08/22 02:22:20;;;;;;;;;3.75;3.75;;;;;19.57;57.72;100566.88;5075105;27;45344;-71
2022/08/22 02:24:45;;;;;;;;;4.25;4.25;;;;;19.58;57.45;100562.34;5074882;27;45896;-70
2022/08/22 02:27:24;;;;;;;;;6.00;6.00;;;;;19.55;57.93;100563.47;5073615;27;45724;-71
2022/08/22 02:30:02;;;;;;;;;5.00;5.00;;;;;19.54;58.05;100567.09;5073856;27;45443;-70
2022/08/22 02:32:40;;;;;;;;;4.75;4.75;;;;;19.51;58.42;100562.00;5075098;27;45240;-70
2022/08/22 02:35:32;;;;;;;;;5.25;5.25;;;;;19.47;57.70;100561.38;5074624;27;45334;-71
2022/08/22 02:38:20;;;;;;;;;5.00;5.00;;;;;19.45;58.24;100554.50;5075283;27;45349;-71
2022/08/22 02:41:04;;;;;;;;;4.75;4.00;;;;;19.41;57.78;100565.41;5074208;27;47466;-71
2022/08/22 02:43:46;;;;;;;;;5.25;5.25;;;;;19.36;58.21;100562.25;5074894;27;45278;-70
2022/08/22 02:46:41;;;;;;;;;4.25;4.25;;;;;19.37;58.07;100566.59;5073240;28;45322;-70
2022/08/22 02:49:18;;;;;;;;;5.25;5.25;;;;;19.34;58.15;100566.84;5064793;27;45408;-70
2022/08/22 02:52:15;;;;;;;;;3.50;3.50;;;;;19.34;58.29;100557.97;5075130;28;46305;-71
2022/08/22 02:54:51;;;;;;;;;7.50;7.50;;;;;19.32;58.50;100563.44;5074653;28;45269;-71
2022/08/22 02:57:25;;;;;;;;;5.25;5.25;;;;;19.28;58.48;100556.66;5074596;27;45258;-70
2022/08/22 02:59:57;;;;;;;;;4.00;4.00;;;;;19.24;58.18;100556.03;5074878;27;45230;-70
2022/08/22 03:02:28;;;;;;;;;6.00;6.00;;;;;19.24;58.42;100557.88;5074601;27;45468;-72
2022/08/22 03:04:58;;;;;;;;;5.00;5.00;;;;;19.22;58.28;100559.81;5074362;27;45293;-70
2022/08/22 03:07:37;;;;;;;;;5.00;5.00;;;;;19.18;58.12;100553.00;5074592;27;45226;-71
2022/08/22 03:10:13;;;;;;;;;4.00;4.00;;;;;19.17;58.02;100545.97;5074683;27;45420;-72
2022/08/22 03:13:10;;;;;;;;;4.50;3.25;;;;;19.18;58.71;100551.16;5073844;27;45555;-72
2022/08/22 03:15:52;;;;;;;;;4.50;4.50;;;;;19.18;58.41;100561.00;5069609;27;45370;-71
2022/08/22 03:18:47;;;;;;;;;4.00;4.00;;;;;19.18;58.48;100553.84;5074279;27;45342;-71
2022/08/22 03:21:41;;;;;;;;;4.75;4.75;;;;;19.19;58.61;100552.03;5074329;27;45429;-71
2022/08/22 03:24:23;;;;;;;;;4.00;4.00;;;;;19.21;58.05;100560.75;5072154;27;46153;-71
2022/08/22 03:26:56;;;;;;;;;4.25;4.25;;;;;19.22;58.14;100560.63;5073689;27;45294;-71
2022/08/22 03:29:28;;;;;;;;;5.00;5.00;;;;;19.25;58.52;100562.22;5073950;27;45329;-70
2022/08/22 03:32:18;;;;;;;;;2.75;2.75;;;;;19.29;58.24;100557.50;5074178;27;45375;-74
2022/08/22 03:35:22;;;;;;;;;5.00;4.25;;;;;19.29;58.44;100553.03;5073737;27;46285;-71
2022/08/22 03:37:51;;;;;;;;;3.25;3.25;;;;;19.33;58.71;100554.47;5038515;28;45724;-72
2022/08/22 03:40:25;;;;;;;;;5.00;5.00;;;;;19.36;58.27;100551.56;5074127;27;45512;-71
2022/08/22 03:43:12;;;;;;;;;4.00;4.00;;;;;19.38;58.45;100552.31;5077611;27;45240;-71
2022/08/22 03:46:07;;;;;;;;;4.75;4.75;;;;;19.36;58.48;100551.56;5076965;27;45640;-71
2022/08/22 03:49:08;;;;;;;;;4.75;4.75;;;;;19.36;58.27;100548.03;5077518;27;45471;-72
2022/08/22 03:51:39;;;;;;;;;4.00;4.00;;;;;19.35;58.44;100551.69;5077852;27;45212;-71
2022/08/22 03:54:07;;;;;;;;;5.75;5.75;;;;;19.32;58.14;100547.44;5077482;27;45313;-71
2022/08/22 03:56:52;;;;;;;;;5.25;5.25;;;;;19.32;58.41;100552.78;5077198;27;45246;-71
2022/08/22 03:59:35;;;;;;;;;4.50;4.50;;;;;19.31;58.70;100551.09;5077055;27;45142;-71
2022/08/22 04:02:16;;;;;;;;;5.25;5.25;;;;;19.30;58.51;100541.38;5077615;27;45368;-71
2022/08/22 04:05:09;;;;;;;;;5.50;5.50;;;;;19.27;58.66;100537.13;5077642;27;45381;-69
2022/08/22 04:07:52;;;;;;;;;5.25;5.25;;;;;19.21;58.90;100531.44;5077503;27;46312;-71
2022/08/22 04:10:46;;;;;;;;;5.00;5.00;;;;;19.12;59.43;100530.31;5076718;28;45193;-71
2022/08/22 04:13:31;;;;;;;;;5.75;5.75;;;;;19.07;59.27;100528.00;5076964;27;45327;-71
2022/08/22 04:16:19;;;;;;;;;5.75;5.75;;;;;19.01;59.27;100532.97;5075619;27;45350;-71
2022/08/22 04:19:07;;;;;;;;;4.00;4.00;;;;;18.93;59.72;100528.19;5076706;28;45472;-70
2022/08/22 04:22:00;;;;;;;;;5.75;5.75;;;;;18.89;60.07;100532.03;5077159;27;45481;-70
2022/08/22 04:24:58;;;;;;;;;6.00;6.00;;;;;18.83;59.87;100533.38;5065340;27;45301;-70
2022/08/22 04:27:45;;;;;;;;;5.25;5.25;;;;;18.76;60.39;100534.81;5075329;27;45201;-71
2022/08/22 04:30:39;;;;;;;;;6.75;6.75;;;;;18.69;60.46;100529.94;5076855;27;45463;-71
2022/08/22 04:33:09;;;;;;;;;4.75;4.75;;;;;18.69;60.41;100527.28;5076977;28;45377;-70
2022/08/22 04:35:38;;;;;;;;;7.00;7.00;;;;;18.66;60.57;100532.84;5077244;27;45354;-71
2022/08/22 04:38:19;;;;;;;;;4.00;4.00;;;;;18.68;60.71;100540.69;5077183;27;45434;-71
2022/08/22 04:40:51;;;;;;;;;7.25;7.25;;;;;18.65;60.67;100535.59;5076469;27;45580;-71
2022/08/22 04:43:26;;;;;;;;;6.50;6.50;;;;;18.66;60.65;100532.84;5076682;27;45311;-71
2022/08/22 04:46:06;;;;;;;;;6.00;6.00;;;;;18.67;60.67;100529.22;5076760;27;45331;-71
2022/08/22 04:48:52;;;;;;;;;6.75;6.75;;;;;18.68;60.56;100524.72;5076915;27;45416;-72
2022/08/22 04:51:33;;;;;;;;;6.50;6.50;;;;;18.69;60.79;100535.28;5075515;27;45402;-71
2022/08/22 04:54:23;;;;;;;;;7.00;7.00;;;;;18.74;60.66;100534.06;5076251;27;45218;-71
2022/08/22 04:57:13;;;;;;;;;8.00;8.00;;;;;18.73;60.73;100551.88;5076068;27;45301;-71
2022/08/22 04:59:39;;;;;;;;;7.00;5.75;;;;;18.72;60.90;100555.50;5076529;28;45281;-70
2022/08/22 05:02:09;;;;;;;;;5.00;5.00;;;;;18.75;60.69;100557.91;5076120;27;46343;-72
2022/08/22 05:04:39;;;;;;;;;5.25;5.25;;;;;18.78;60.99;100551.53;5076185;27;45382;-71
2022/08/22 05:07:18;;;;;;;;;5.00;5.00;;;;;18.79;60.83;100539.91;5076309;27;45425;-71
2022/08/22 05:09:55;;;;;;;;;5.50;5.50;;;;;18.83;60.77;100554.69;5076066;27;45350;-71
2022/08/22 05:12:36;;;;;;;;;7.25;7.25;;;;;18.86;60.69;100562.47;5075835;27;46561;-72
2022/08/22 05:15:11;;;;;;;;;6.25;5.75;;;;;18.87;60.59;100576.63;5075522;27;45398;-71
2022/08/22 05:17:39;;;;;;;;;8.25;8.25;;;;;18.89;60.46;100577.34;5076366;27;45384;-71
2022/08/22 05:20:08;;;;;;;;;5.00;5.00;;;;;18.91;60.82;100575.41;5076446;27;45527;-72
2022/08/22 05:22:44;;;;;;;;;5.75;5.75;;;;;18.93;60.51;100569.03;5075645;27;46693;-71
2022/08/22 05:25:16;;;;;;;;;7.50;7.50;;;;;18.95;60.79;100575.09;5075777;27;45410;-72
2022/08/22 05:27:50;;;;;;;;;4.75;4.75;;;;;18.96;60.55;100563.44;5075684;27;45276;-73
2022/08/22 05:30:23;;;;;;;;;5.25;5.25;;;;;19.03;60.10;100563.84;5076134;27;45313;-71
2022/08/22 05:33:26;;;;;;;;;7.00;7.00;;;;;19.08;60.36;100575.00;5075452;27;45672;-71
2022/08/22 05:35:59;;;;;;;;;4.50;4.50;;;;;19.10;60.05;100583.78;5075286;28;45326;-71
2022/08/22 05:38:34;;;;;;;;;5.25;5.25;;;;;19.09;60.48;100586.53;5075329;27;45283;-72
2022/08/22 05:41:15;;;;;;;;;5.75;5.75;;;;;19.16;59.97;100600.25;5075820;28;45408;-71
2022/08/22 05:43:43;;;;;;;;;6.75;6.75;;;;;19.19;60.18;100597.38;5075352;27;45510;-72
2022/08/22 05:46:19;;;;;;;;;7.50;7.50;;;;;19.21;59.91;100598.94;5075544;27;45265;-71
2022/08/22 05:48:59;;;;;;;;;7.00;7.00;;;;;19.27;60.13;100595.78;5075733;28;45217;-70
2022/08/22 05:51:43;;;;;;;;;5.50;5.00;;;;;19.30;59.52;100592.06;5075740;28;45296;-72
2022/08/22 05:54:21;;;;;;;;;5.75;5.75;;;;;19.31;59.87;100587.56;5074181;27;46605;-73
2022/08/22 05:56:53;;;;;;;;;6.25;6.25;;;;;19.35;59.56;100589.88;5075697;27;45303;-70
2022/08/22 05:59:31;;;;;;;;;7.25;7.25;;;;;19.37;59.47;100589.75;5075761;27;45396;-71
2022/08/22 06:02:23;;;;;;;;;6.75;6.75;;;;;19.40;59.47;100590.38;5075439;27;45491;-70
2022/08/22 06:04:54;;;;;;;;;6.00;6.00;;;;;19.41;59.83;100597.41;5072998;27;46098;-71
2022/08/22 06:07:40;;;;;;;;;5.75;5.75;;;;;19.37;59.21;100589.75;5075104;27;45276;-71
2022/08/22 06:10:14;;;;;;;;;8.50;8.25;;;;;19.46;60.07;100602.38;5075129;28;45296;-71
2022/08/22 06:12:49;;;;;;;;;7.25;7.25;;;;;19.49;59.07;100601.28;5075389;27;45303;-71
2022/08/22 06:15:26;;;;;;;;;5.00;5.00;;;;;19.50;59.43;100608.31;5074537;27;46807;-71
2022/08/22 06:17:54;;;;;;;;;5.50;5.50;;;;;19.51;58.95;100605.53;5075065;27;45341;-72
2022/08/22 06:20:25;;;;;;;;;4.75;4.75;;;;;19.53;59.05;100600.91;5074799;27;45384;-71
2022/08/22 06:22:56;;;;;;;;;5.75;5.75;;;;;19.55;58.76;100587.47;5074786;27;45350;-71
2022/08/22 06:25:26;;;;;;;;;9.75;9.75;;;;;19.63;59.10;100587.72;5073345;27;46333;-71
2022/08/22 06:27:53;;;;;;;;;7.00;7.00;;;;;19.74;58.73;100599.38;5075034;27;45369;-70
2022/08/22 06:30:19;;;;;;;;;5.00;5.00;;;;;19.84;58.68;100605.69;5075291;27;45346;-72
2022/08/22 06:32:52;;;;;;;;;7.75;7.75;;;;;19.95;58.22;100612.88;5075423;28;45438;-71
2022/08/22 06:35:26;;;;;;;;;8.00;7.50;;;;;20.05;57.77;100612.97;5075106;27;46333;-71
2022/08/22 06:37:58;;;;;;;;;7.75;6.50;;;;;20.15;57.77;100608.63;5075099;27;45231;-69
2022/08/22 06:40:26;;;;;;;;;7.00;7.00;;;;;20.27;57.14;100606.75;5073713;28;45285;-72
2022/08/22 06:42:53;;;;;;;;;6.50;6.50;;;;;20.37;57.06;100601.53;5075854;27;45195;-71
2022/08/22 06:45:29;;;;;;;;;6.50;6.50;;;;;20.56;57.28;100607.06;5074208;28;45674;-72
2022/08/22 06:48:14;;;;;;;;;7.00;7.00;;;;;20.74;55.96;100606.50;5076575;27;45326;-71
2022/08/22 06:50:41;;;;;;;;;6.50;5.75;;;;;20.86;56.05;100594.81;5076412;27;45319;-72
2022/08/22 06:53:11;;;;;;;;;6.25;6.25;;;;;21.05;55.83;100601.28;5075858;27;45380;-72
2022/08/22 06:55:42;;;;;;;;;7.00;7.00;;;;;21.27;55.29;100600.34;5074906;27;45485;-71
2022/08/22 06:58:18;;;;;;;;;8.00;8.00;;;;;21.40;54.91;100577.88;5073256;27;45312;-72
2022/08/22 07:00:46;;;;;;;;;5.75;5.75;;;;;21.62;54.60;100592.06;5075052;27;45307;-72
2022/08/22 07:03:38;;;;;;;;;6.75;6.75;;;;;21.77;54.00;100597.94;5075054;27;45173;-70
2022/08/22 07:06:03;;;;;;;;;6.00;6.00;;;;;21.84;54.01;100594.63;5073062;28;46366;-71
2022/08/22 07:08:33;;;;;;;;;8.00;7.25;;;;;21.94;53.81;100601.84;5074580;27;45461;-73
2022/08/22 07:11:20;;;;;;;;;9.00;8.00;;;;;22.03;53.37;100609.03;5074884;27;45299;-72
2022/08/22 07:14:10;;;;;;;;;8.00;7.25;;;;;22.10;53.10;100618.22;5074340;27;45480;-73
2022/08/22 07:16:43;;;;;;;;;5.75;5.75;;;;;22.12;53.03;100618.09;5073925;27;45532;-71
2022/08/22 07:19:20;;;;;;;;;5.50;5.50;;;;;22.13;53.19;100627.81;5074450;27;45393;-72
2022/08/22 07:21:47;;;;;;;;;6.50;6.50;;;;;22.19;53.11;100621.91;5072517;28;45382;-71
2022/08/22 07:24:19;;;;;;;;;8.50;8.50;;;;;22.24;52.74;100625.03;5074395;27;45406;-71
2022/08/22 07:27:14;;;;;;;;;6.00;6.00;;;;;22.25;52.57;100628.56;5074291;27;46152;-72
2022/08/22 07:30:08;;;;;;;;;8.75;8.00;;;;;22.30;52.87;100631.69;5072678;27;45288;-71
2022/08/22 07:32:50;;;;;;;;;5.00;5.00;;;;;22.30;52.15;100635.22;5074200;27;45253;-71
2022/08/22 07:35:21;;;;;;;;;5.25;5.25;;;;;22.33;52.15;100634.09;5074458;27;45322;-71
2022/08/22 07:38:12;;;;;;;;;6.00;6.00;;;;;22.29;52.08;100638.03;5074183;27;46767;-71
2022/08/22 07:40:48;;;;;;;;;6.75;6.75;;;;;22.27;52.04;100631.97;5073903;28;45292;-70
2022/08/22 07:43:53;;;;;;;;;4.00;3.25;;;;;22.35;52.10;100628.59;5074373;27;45190;-71
2022/08/22 07:46:34;;;;;;;;;5.50;5.50;;;;;22.42;51.88;100632.44;5072708;27;45565;-72
2022/08/22 07:49:20;;;;;;;;;5.00;5.00;;;;;22.53;51.78;100637.69;5073822;27;46354;-72
2022/08/22 07:51:57;;;;;;;;;10.50;10.25;;;;;22.56;51.17;100642.78;5074005;27;45336;-72
2022/08/22 07:54:41;;;;;;;;;6.25;6.25;;;;;22.60;51.59;100643.34;5073888;27;45299;-72
2022/08/22 07:57:13;;;;;;;;;5.25;5.25;;;;;22.68;51.60;100638.13;5074044;27;45281;-72
2022/08/22 07:59:46;;;;;;;;;8.00;6.75;;;;;22.83;51.32;100643.09;5073850;27;46402;-71
2022/08/22 08:02:14;;;;;;;;;6.50;6.50;;;;;22.94;50.77;100637.59;5073573;27;45402;-72
2022/08/22 08:04:41;;;;;;;;;7.00;6.00;;;;;23.03;50.37;100642.09;5073685;27;45466;-71
2022/08/22 08:07:09;;;;;;;;;5.50;5.50;;;;;23.07;50.73;100633.78;5073870;27;45443;-71
2022/08/22 08:09:45;;;;;;;;;6.00;6.00;;;;;23.13;50.57;100636.72;5073324;27;45436;-72
2022/08/22 08:12:13;;;;;;;;;8.00;7.00;;;;;23.15;50.83;100637.41;5073670;28;45382;-70
2022/08/22 08:14:43;;;;;;;;;9.75;9.75;;;;;23.18;50.32;100639.81;5071516;27;45359;-70
2022/08/22 08:17:17;;;;;;;;;6.25;6.25;;;;;23.19;49.96;100636.16;5073600;27;45621;-74
2022/08/22 08:19:44;;;;;;;;;6.25;6.25;;;;;23.19;50.27;100646.03;5073417;28;46972;-73
2022/08/22 08:22:25;;;;;;;;;5.50;5.50;;;;;23.26;50.13;100659.75;5073237;27;45358;-72
2022/08/22 08:24:54;;;;;;;;;7.00;6.75;;;;;23.30;49.88;100661.16;5073741;27;45231;-72
2022/08/22 08:30:17;;;;;;;;;6.00;6.00;;;;;23.28;49.63;100650.59;5077088;27;45399;-71
2022/08/22 08:32:56;;;;;;;;;7.75;7.00;;;;;23.29;49.83;100648.72;5077352;27;45448;-71
2022/08/22 08:35:30;;;;;;;;;8.00;8.00;;;;;23.31;50.19;100642.25;5076713;27;45271;-72
2022/08/22 08:38:00;;;;;;;;;5.00;5.00;;;;;23.43;49.47;100639.41;5076680;27;45259;-72
2022/08/22 08:40:31;;;;;;;;;4.25;4.25;;;;;23.52;49.79;100643.06;5076377;27;46463;-71
2022/08/22 08:43:30;;;;;;;;;7.50;7.00;;;;;23.61;49.89;100636.81;5076156;27;45385;-72
2022/08/22 08:45:58;;;;;;;;;6.50;5.00;;;;;23.73;49.79;100638.34;5076402;27;45398;-72
2022/08/22 08:48:29;;;;;;;;;7.00;7.00;;;;;23.78;48.98;100638.75;5076882;27;45601;-72
2022/08/22 08:51:05;;;;;;;;;6.75;6.75;;;;;23.80;48.86;100640.44;5076673;27;45874;-73
2022/08/22 08:53:49;;;;;;;;;4.75;4.75;;;;;23.77;49.05;100634.38;5076638;27;45367;-71
2022/08/22 08:56:24;;;;;;;;;6.25;6.25;;;;;23.75;49.15;100632.81;5076875;28;45593;-72
2022/08/22 08:59:06;;;;;;;;;7.25;7.25;;;;;23.75;49.05;100622.91;5076836;27;45242;-71
2022/08/22 09:01:58;;;;;;;;;5.00;5.00;;;;;23.77;49.00;100620.94;5076252;27;46648;-71
2022/08/22 09:04:40;;;;;;;;;7.00;7.00;;;;;23.79;48.88;100615.41;5076772;27;45326;-71
2022/08/22 09:07:41;;;;;;;;;6.00;6.00;;;;;23.81;48.57;100618.78;5076610;27;45858;-70
2022/08/22 09:10:40;;;;;;;;;5.00;5.00;;;;;23.93;48.74;100614.94;5076787;27;45379;-72
2022/08/22 09:13:20;;;;;;;;;6.00;6.00;;;;;24.06;48.29;100613.78;5076400;28;45556;-72
2022/08/22 09:16:19;;;;;;;;;4.25;4.25;;;;;24.16;47.78;100608.34;5076709;27;45263;-73
2022/08/22 09:19:10;;;;;;;;;7.00;7.00;;;;;24.17;47.85;100602.81;5076349;27;45230;-71
2022/08/22 09:22:03;;;;;;;;;5.00;5.00;;;;;24.18;47.65;100600.97;5074958;27;45421;-72
2022/08/22 09:24:40;;;;;;;;;4.50;4.50;;;;;24.33;47.26;100607.50;5076181;27;45446;-73
2022/08/22 09:27:15;;;;;;;;;4.50;4.50;;;;;24.42;46.45;100615.69;5075946;27;45405;-70
2022/08/22 09:30:01;;;;;;;;;5.50;5.50;;;;;24.40;47.04;100601.56;5074398;27;45369;-72
2022/08/22 09:32:43;;;;;;;;;5.00;5.00;;;;;24.43;47.13;100603.94;5074760;27;45426;-71
2022/08/22 09:35:26;;;;;;;;;4.00;4.00;;;;;24.43;46.18;100603.94;5075984;27;46168;-71
2022/08/22 09:37:52;;;;;;;;;3.00;3.00;;;;;24.49;46.08;100603.34;5076016;28;45388;-71
2022/08/22 09:40:32;;;;;;;;;3.00;3.00;;;;;24.54;46.09;100602.88;5076115;27;45443;-70
2022/08/22 09:43:12;;;;;;;;;3.00;3.00;;;;;24.64;45.95;100599.13;5076372;27;45345;-72
2022/08/22 09:45:49;;;;;;;;;5.25;5.25;;;;;24.77;46.12;100592.53;5074079;28;47094;-71
2022/08/22 09:48:43;;;;;;;;;2.75;2.75;;;;;24.87;45.58;100587.06;5075837;27;45464;-71
2022/08/22 09:51:33;;;;;;;;;4.25;4.25;;;;;25.01;45.42;100589.22;5073771;27;45344;-72
2022/08/22 09:54:17;;;;;;;;;3.25;3.25;;;;;25.08;45.08;100586.72;5075249;27;45473;-72
2022/08/22 09:57:00;;;;;;;;;3.75;3.75;;;;;25.11;45.21;100583.72;5075140;27;45664;-71
2022/08/22 09:59:50;;;;;;;;;4.50;4.50;;;;;25.16;45.98;100592.16;5075409;27;45504;-71
2022/08/22 10:02:21;;;;;;;;;7.50;7.50;;;;;25.22;45.89;100588.00;5073671;27;45433;-71
2022/08/22 10:05:01;;;;;;;;;4.50;4.50;;;;;25.26;44.66;100591.22;5075540;27;45319;-70
2022/08/22 10:07:26;;;;;;;;;4.00;4.00;;;;;25.28;44.78;100589.22;5074213;27;45358;-72
2022/08/22 10:10:11;;;;;;;;;3.50;3.50;;;;;25.34;45.20;100591.25;5075341;28;45217;-72
2022/08/22 10:13:15;;;;;;;;;5.75;5.75;;;;;25.42;44.78;100591.31;5074214;27;45247;-72
2022/08/22 10:15:53;;;;;;;;;3.75;3.75;;;;;25.52;44.29;100594.81;5067566;27;45418;-72
2022/08/22 10:18:34;;;;;;;;;2.50;2.50;;;;;25.56;44.34;100589.09;5074999;27;46241;-71
2022/08/22 10:21:38;;;;;;;;;3.50;3.50;;;;;25.65;44.19;100585.44;5076058;27;45283;-71
2022/08/22 10:24:32;;;;;;;;;2.50;2.50;;;;;25.71;44.64;100584.78;5075644;27;45373;-72
2022/08/22 10:27:09;;;;;;;;;4.75;4.75;;;;;25.77;44.03;100594.06;5064979;27;45505;-71
2022/08/22 10:29:39;;;;;;;;;3.50;3.50;;;;;25.86;43.85;100586.88;5075030;27;46144;-72
2022/08/22 10:32:32;;;;;;;;;3.00;3.00;;;;;26.01;43.85;100587.94;5074676;28;45300;-72
2022/08/22 10:35:20;;;;;;;;;3.00;3.00;;;;;26.13;43.51;100584.94;5074624;27;45255;-73
2022/08/22 10:37:57;;;;;;;;;2.00;2.00;;;;;26.21;43.23;100582.31;5074748;27;45326;-73
2022/08/22 10:40:35;;;;;;;;;4.00;4.00;;;;;26.33;42.81;100582.84;5074810;28;46421;-72
2022/08/22 10:43:16;;;;;;;;;4.00;4.00;;;;;26.35;42.81;100587.03;5074582;27;45286;-71
2022/08/22 10:45:49;;;;;;;;;1.00;1.00;;;;;26.37;42.70;100584.19;5074785;27;45441;-71
2022/08/22 10:48:22;;;;;;;;;3.25;3.25;;;;;26.41;42.66;100590.94;5074498;27;45392;-71
2022/08/22 10:51:00;;;;;;;;;3.00;3.00;;;;;26.37;42.57;100585.03;5073506;27;46713;-73
2022/08/22 10:53:50;;;;;;;;;3.50;3.00;;;;;26.38;43.06;100588.59;5074452;27;45280;-73
2022/08/22 10:56:25;;;;;;;;;4.25;4.25;;;;;26.44;42.93;100581.66;5074195;27;45391;-71
2022/08/22 10:59:13;;;;;;;;;4.25;4.25;;;;;26.52;42.97;100584.41;5074821;28;45453;-72
2022/08/22 11:01:51;;;;;;;;;3.75;3.75;;;;;26.49;42.56;100579.31;5072761;28;46402;-73
2022/08/22 11:04:52;;;;;;;;;2.75;2.75;;;;;26.35;42.80;100578.13;5074449;27;45369;-72
2022/08/22 11:07:32;;;;;;;;;4.50;4.50;;;;;26.25;43.32;100576.44;5063982;27;45631;-71
2022/08/22 11:10:08;;;;;;;;;3.00;3.00;;;;;26.40;42.80;100578.47;5074627;27;45312;-72
2022/08/22 11:12:42;;;;;;;;;4.75;4.75;;;;;26.50;42.66;100565.69;5074485;28;46529;-70
2022/08/22 11:15:17;;;;;;;;;3.00;3.00;;;;;26.65;42.54;100582.06;5074244;27;45596;-72
2022/08/22 11:18:24;;;;;;;;;2.50;2.50;;;;;26.73;42.55;100588.47;5074286;27;45196;-70
2022/08/22 11:20:55;;;;;;;;;4.00;4.00;;;;;26.93;42.09;100586.28;5074400;27;45192;-72
2022/08/22 11:23:38;;;;;;;;;3.75;3.75;;;;;27.07;41.53;100573.97;5073617;27;45450;-71
2022/08/22 11:26:26;;;;;;;;;3.75;3.75;;;;;27.26;41.53;100568.19;5073867;27;45316;-71
2022/08/22 11:28:59;;;;;;;;;2.75;2.75;;;;;27.44;41.19;100580.66;5073871;27;45367;-72
2022/08/22 11:31:55;;;;;;;;;4.00;4.00;;;;;27.63;40.92;100574.03;5074752;27;45313;-72
2022/08/22 11:34:33;;;;;;;;;3.25;3.25;;;;;27.84;41.29;100573.47;5073823;27;45847;-71
2022/08/22 11:37:07;;;;;;;;;2.00;2.00;;;;;28.07;40.47;100577.22;5074160;27;45462;-71
2022/08/22 11:40:02;;;;;;;;;2.75;2.75;;;;;28.32;40.53;100569.84;5074313;27;45238;-72
2022/08/22 11:42:44;;;;;;;;;2.00;2.00;;;;;28.54;40.72;100576.28;5064837;27;45288;-71
2022/08/22 11:45:18;;;;;;;;;4.50;4.50;;;;;28.74;39.37;100575.81;5073999;27;45420;-72
2022/08/22 11:48:06;;;;;;;;;1.50;1.50;;;;;28.85;39.11;100567.28;5074029;27;45428;-72
2022/08/22 11:51:03;;;;;;;;;0.00;0.00;;;;;28.88;38.89;100560.66;5074144;27;45333;-70
2022/08/22 11:53:41;;;;;;;;;2.00;2.00;;;;;28.71;39.28;100570.75;5073026;27;45649;-71
2022/08/22 11:56:35;;;;;;;;;2.00;2.00;;;;;28.51;39.54;100560.44;5074903;27;46373;-72
2022/08/22 11:59:21;;;;;;;;;2.75;2.75;;;;;28.58;39.68;100564.09;5075608;27;45278;-71
2022/08/22 12:01:54;;;;;;;;;3.00;3.00;;;;;28.68;39.75;100555.75;5077412;27;45201;-71
2022/08/22 12:04:38;;;;;;;;;2.75;2.75;;;;;28.89;40.10;100561.50;5079716;27;45267;-73
2022/08/22 12:07:12;;;;;;;;;3.00;3.00;;;;;29.01;39.19;100563.59;5077779;28;46483;-72
2022/08/22 12:10:06;;;;;;;;;3.00;3.00;;;;;29.05;39.64;100566.75;5077130;27;45299;-70
2022/08/22 12:12:50;;;;;;;;;8.50;8.50;;;;;29.08;39.65;100560.97;5076977;27;45440;-71
2022/08/22 12:15:44;;;;;;;;;10.75;10.75;;;;;29.20;39.53;100563.25;5077330;27;45353;-73
2022/08/22 12:18:18;;;;;;;;;4.00;4.00;;;;;29.20;38.81;100560.53;5077589;28;45424;-71
2022/08/22 12:21:02;;;;;;;;;2.50;2.50;;;;;29.20;39.29;100553.25;5077305;27;45415;-71
2022/08/22 12:23:58;;;;;;;;;4.00;4.00;;;;;29.40;38.79;100559.00;5076283;28;45475;-72
2022/08/22 12:26:47;;;;;;;;;5.25;5.25;;;;;29.54;39.13;100551.03;5077063;27;45451;-71
2022/08/22 12:29:37;;;;;;;;;3.50;3.50;;;;;29.57;39.22;100550.66;5076855;27;45202;-71
2022/08/22 12:32:32;;;;;;;;;2.50;2.50;;;;;29.68;38.88;100549.34;5077218;27;45397;-71
2022/08/22 12:35:20;;;;;;;;;7.00;7.00;;;;;29.75;38.15;100544.88;5077280;28;45603;-73